createdAt,value
2022-07-29T00:00:00.075Z,14.90
2022-07-29T00:02:28.455Z,14.90
2022-07-29T00:04:55.684Z,14.90
2022-07-29T00:07:22.751Z,14.90
2022-07-29T00:09:50.742Z,14.90
2022-07-29T00:12:25.464Z,14.90
2022-07-29T00:14:56.160Z,14.90
2022-07-29T00:17:24.722Z,14.90
2022-07-29T00:19:51.932Z,14.90
2022-07-29T00:22:19.126Z,14.80
2022-07-29T00:24:47.869Z,14.90
2022-07-29T00:27:14.983Z,14.80
2022-07-29T00:29:42.168Z,14.80
2022-07-29T00:32:09.547Z,14.80
2022-07-29T00:34:55.174Z,14.80
2022-07-29T00:37:22.386Z,14.90
2022-07-29T00:39:49.509Z,14.90
2022-07-29T00:42:17.551Z,14.90
2022-07-29T00:44:45.140Z,14.90
2022-07-29T00:47:13.213Z,14.90
2022-07-29T00:49:43.769Z,14.90
2022-07-29T00:52:12.071Z,14.90
2022-07-29T00:54:44.402Z,14.90
2022-07-29T00:57:12.696Z,14.80
2022-07-29T00:59:40.011Z,14.80
2022-07-29T01:02:07.191Z,14.80
2022-07-29T01:04:34.383Z,14.70
2022-07-29T01:07:05.125Z,14.70
2022-07-29T01:09:46.906Z,14.60
2022-07-29T01:12:23.114Z,14.60
2022-07-29T01:14:51.021Z,14.60
2022-07-29T01:17:52.546Z,14.60
2022-07-29T01:20:59.494Z,14.60
2022-07-29T01:23:36.946Z,14.60
2022-07-29T01:26:41.718Z,14.60
2022-07-29T01:29:35.823Z,14.60
2022-07-29T01:32:22.579Z,14.60
2022-07-29T01:34:55.445Z,14.60
2022-07-29T01:37:41.108Z,14.60
2022-07-29T01:40:19.935Z,14.60
2022-07-29T01:42:52.586Z,14.60
2022-07-29T01:45:48.676Z,14.50
2022-07-29T01:48:21.943Z,14.50
2022-07-29T01:50:52.924Z,14.50
2022-07-29T01:53:37.680Z,14.40
2022-07-29T01:56:05.687Z,14.40
2022-07-29T01:58:34.080Z,14.40
2022-07-29T02:01:02.769Z,14.30
2022-07-29T02:03:31.216Z,14.30
2022-07-29T02:06:02.600Z,14.30
2022-07-29T02:08:31.532Z,14.20
2022-07-29T02:10:59.526Z,14.20
2022-07-29T02:13:28.945Z,14.20
2022-07-29T02:15:58.398Z,14.10
2022-07-29T02:18:29.117Z,14.10
2022-07-29T02:20:57.930Z,14.00
2022-07-29T02:23:26.201Z,14.00
2022-07-29T02:25:56.997Z,14.00
2022-07-29T02:28:26.548Z,13.90
2022-07-29T02:30:56.619Z,13.90
2022-07-29T02:33:26.370Z,13.90
2022-07-29T02:35:54.123Z,13.90
2022-07-29T02:38:41.783Z,13.90
2022-07-29T02:41:17.612Z,13.80
2022-07-29T02:43:49.677Z,13.90
2022-07-29T02:46:32.311Z,13.80
2022-07-29T02:49:10.461Z,13.80
2022-07-29T02:51:44.532Z,13.90
2022-07-29T02:54:17.792Z,13.80
2022-07-29T02:56:46.587Z,13.80
2022-07-29T02:59:18.272Z,13.80
2022-07-29T03:01:46.826Z,13.80
2022-07-29T03:04:16.290Z,13.80
2022-07-29T03:06:45.740Z,13.90
2022-07-29T03:09:14.338Z,13.90
2022-07-29T03:11:49.224Z,13.90
2022-07-29T03:14:20.569Z,13.90
2022-07-29T03:16:49.906Z,13.90
2022-07-29T03:19:17.942Z,13.90
2022-07-29T03:21:45.110Z,14.00
2022-07-29T03:24:24.974Z,14.00
2022-07-29T03:26:51.982Z,14.00
2022-07-29T03:29:18.930Z,14.10
2022-07-29T03:31:47.958Z,14.10
2022-07-29T03:34:16.057Z,14.10
2022-07-29T03:36:43.569Z,14.20
2022-07-29T03:39:14.667Z,14.10
2022-07-29T03:41:44.071Z,14.20
2022-07-29T03:44:12.257Z,14.20
2022-07-29T03:46:40.928Z,14.30
2022-07-29T03:49:10.061Z,14.30
2022-07-29T03:51:38.599Z,14.30
2022-07-29T03:54:10.203Z,14.40
2022-07-29T03:56:41.811Z,14.50
2022-07-29T03:59:09.445Z,14.50
2022-07-29T04:01:37.991Z,14.50
2022-07-29T04:04:05.747Z,14.60
2022-07-29T04:06:44.931Z,14.70
2022-07-29T04:09:13.213Z,14.70
2022-07-29T04:11:59.628Z,14.80
2022-07-29T04:14:28.256Z,14.90
2022-07-29T04:16:55.113Z,15.00
2022-07-29T04:19:22.243Z,15.00
2022-07-29T04:21:49.498Z,15.10
2022-07-29T04:24:17.267Z,15.20
2022-07-29T04:26:46.101Z,15.30
2022-07-29T04:29:13.078Z,15.30
2022-07-29T04:31:40.180Z,15.40
2022-07-29T04:34:07.693Z,15.50
2022-07-29T04:36:34.723Z,15.70
2022-07-29T04:39:02.353Z,15.80
2022-07-29T04:41:33.169Z,15.90
2022-07-29T04:44:07.209Z,16.00
2022-07-29T04:46:39.337Z,16.00
2022-07-29T04:49:06.465Z,16.10
2022-07-29T04:51:33.585Z,16.20
2022-07-29T04:54:00.784Z,16.20
2022-07-29T04:56:28.434Z,16.30
2022-07-29T04:58:55.628Z,16.40
2022-07-29T05:01:22.920Z,16.50
2022-07-29T05:03:49.946Z,16.50
2022-07-29T05:06:17.057Z,16.60
2022-07-29T05:08:44.214Z,16.70
2022-07-29T05:11:13.522Z,16.70
2022-07-29T05:13:45.301Z,16.80
2022-07-29T05:16:14.425Z,16.90
2022-07-29T05:18:43.220Z,17.00
2022-07-29T05:21:10.435Z,17.00
2022-07-29T05:23:37.567Z,17.10
2022-07-29T05:26:04.811Z,17.20
2022-07-29T05:28:35.984Z,17.20
2022-07-29T05:31:03.235Z,17.20
2022-07-29T05:33:35.606Z,17.30
2022-07-29T05:36:08.224Z,17.30
2022-07-29T05:38:38.748Z,17.40
2022-07-29T05:41:06.374Z,17.40
2022-07-29T05:43:33.730Z,17.50
2022-07-29T05:46:00.923Z,17.50
2022-07-29T05:48:28.467Z,17.60
2022-07-29T05:50:56.015Z,17.70
2022-07-29T05:53:23.343Z,17.70
2022-07-29T05:55:50.967Z,17.80
2022-07-29T05:58:17.899Z,17.90
2022-07-29T06:00:45.091Z,18.00
2022-07-29T06:03:12.568Z,18.10
2022-07-29T06:05:39.739Z,18.10
2022-07-29T06:08:08.347Z,18.30
2022-07-29T06:10:38.620Z,18.30
2022-07-29T06:13:05.796Z,18.50
2022-07-29T06:15:33.411Z,18.60
2022-07-29T06:18:01.533Z,18.70
2022-07-29T06:20:32.696Z,18.80
2022-07-29T06:23:00.388Z,18.90
2022-07-29T06:25:30.372Z,19.00
2022-07-29T06:27:58.358Z,19.10
2022-07-29T06:30:25.506Z,19.20
2022-07-29T06:32:52.820Z,19.30
2022-07-29T06:35:38.483Z,19.40
2022-07-29T06:38:30.137Z,19.40
2022-07-29T06:41:03.747Z,19.50
2022-07-29T06:43:33.190Z,19.60
2022-07-29T06:46:02.317Z,19.70
2022-07-29T06:48:29.997Z,19.80
2022-07-29T06:50:57.218Z,19.90
2022-07-29T06:53:24.763Z,20.00
2022-07-29T06:55:52.036Z,20.10
2022-07-29T06:58:21.372Z,20.20
2022-07-29T07:00:49.371Z,20.20
2022-07-29T07:03:17.618Z,20.30
2022-07-29T07:05:46.829Z,20.30
2022-07-29T07:08:14.326Z,20.40
2022-07-29T07:10:41.279Z,20.40
2022-07-29T07:13:08.422Z,20.50
2022-07-29T07:15:39.361Z,20.60
2022-07-29T07:18:07.755Z,20.70
2022-07-29T07:20:35.528Z,20.80
2022-07-29T07:23:02.628Z,20.90
2022-07-29T07:25:30.158Z,21.00
2022-07-29T07:27:57.223Z,21.00
2022-07-29T07:30:24.279Z,21.10
2022-07-29T07:32:51.487Z,21.20
2022-07-29T07:35:18.703Z,21.30
2022-07-29T07:37:45.604Z,21.40
2022-07-29T07:40:12.886Z,21.50
2022-07-29T07:42:46.293Z,21.60
2022-07-29T07:45:16.446Z,21.60
2022-07-29T07:47:44.049Z,21.70
2022-07-29T07:50:18.203Z,21.80
2022-07-29T07:52:51.204Z,21.80
2022-07-29T07:55:18.609Z,21.80
2022-07-29T07:57:46.156Z,21.90
2022-07-29T08:00:17.562Z,22.00
2022-07-29T08:02:46.218Z,22.00
2022-07-29T08:05:17.950Z,22.10
2022-07-29T08:07:47.555Z,22.20
2022-07-29T08:10:36.640Z,22.20
2022-07-29T08:13:08.067Z,22.30
2022-07-29T08:15:35.729Z,22.40
2022-07-29T08:18:08.237Z,22.50
2022-07-29T08:20:36.763Z,22.50
2022-07-29T08:23:05.725Z,22.60
2022-07-29T08:25:34.724Z,22.60
2022-07-29T08:28:06.893Z,22.70
2022-07-29T08:30:33.980Z,22.70
2022-07-29T08:33:01.257Z,22.80
2022-07-29T08:35:34.785Z,22.80
2022-07-29T08:38:04.373Z,23.00
2022-07-29T08:40:32.668Z,23.00
2022-07-29T08:43:06.327Z,23.10
2022-07-29T08:45:48.726Z,23.20
2022-07-29T08:48:24.267Z,23.40
2022-07-29T08:50:55.301Z,23.50
2022-07-29T08:53:24.836Z,23.60
2022-07-29T08:55:51.872Z,23.70
2022-07-29T08:58:23.168Z,23.80
2022-07-29T09:00:56.134Z,23.90
2022-07-29T09:03:32.098Z,24.00
2022-07-29T09:06:00.083Z,24.10
2022-07-29T09:08:27.632Z,24.10
2022-07-29T09:10:57.066Z,24.10
2022-07-29T09:13:24.212Z,24.20
2022-07-29T09:15:51.384Z,24.20
2022-07-29T09:18:37.470Z,24.20
2022-07-29T09:21:24.770Z,24.40
2022-07-29T09:24:05.866Z,24.50
2022-07-29T09:26:35.187Z,24.60
2022-07-29T09:29:18.735Z,24.80
2022-07-29T09:31:48.551Z,24.90
2022-07-29T09:34:18.307Z,25.00
2022-07-29T09:36:51.894Z,25.20
2022-07-29T09:39:28.183Z,25.20
2022-07-29T09:41:57.355Z,25.30
2022-07-29T09:44:25.088Z,25.20
2022-07-29T09:47:07.207Z,25.10
2022-07-29T09:49:35.650Z,25.10
2022-07-29T09:52:10.819Z,25.10
2022-07-29T09:54:38.975Z,25.20
2022-07-29T09:57:08.072Z,25.30
2022-07-29T09:59:35.313Z,25.40
2022-07-29T10:02:02.676Z,25.50
2022-07-29T10:04:43.327Z,25.70
2022-07-29T10:07:10.957Z,25.90
2022-07-29T10:09:37.983Z,26.00
2022-07-29T10:12:16.257Z,26.20
2022-07-29T10:14:44.067Z,26.40
2022-07-29T10:17:11.928Z,26.50
2022-07-29T10:19:39.836Z,26.60
2022-07-29T10:22:10.645Z,26.70
2022-07-29T10:24:39.447Z,26.80
2022-07-29T10:27:08.890Z,26.90
2022-07-29T10:29:37.136Z,26.90
2022-07-29T10:32:31.493Z,27.00
2022-07-29T10:35:30.841Z,27.00
2022-07-29T10:38:17.462Z,27.00
2022-07-29T10:41:09.484Z,26.80
2022-07-29T10:43:44.682Z,26.70
2022-07-29T10:46:15.484Z,26.60
2022-07-29T10:49:08.306Z,26.50
2022-07-29T10:51:57.657Z,26.40
2022-07-29T10:54:43.983Z,26.40
2022-07-29T10:57:25.740Z,26.40
2022-07-29T11:00:01.995Z,26.50
2022-07-29T11:02:42.196Z,26.60
2022-07-29T11:05:22.216Z,26.70
2022-07-29T11:08:19.772Z,27.00
2022-07-29T11:11:12.528Z,27.20
2022-07-29T11:13:49.395Z,27.30
2022-07-29T11:16:21.267Z,27.60
2022-07-29T11:19:13.535Z,27.70
2022-07-29T11:21:54.702Z,27.70
2022-07-29T11:24:35.620Z,27.80
2022-07-29T11:27:18.002Z,27.90
2022-07-29T11:30:04.750Z,28.10
2022-07-29T11:32:40.816Z,28.20
2022-07-29T11:35:38.075Z,28.30
2022-07-29T11:38:29.190Z,28.30
2022-07-29T11:41:31.758Z,28.40
2022-07-29T11:44:01.391Z,28.50
2022-07-29T11:46:50.444Z,28.50
2022-07-29T11:49:32.408Z,28.50
2022-07-29T11:52:04.142Z,28.40
2022-07-29T11:54:38.963Z,28.40
2022-07-29T11:57:36.545Z,28.50
2022-07-29T12:00:12.196Z,29.00
2022-07-29T12:02:48.759Z,29.70
2022-07-29T12:05:35.989Z,30.60
2022-07-29T12:08:12.592Z,31.20
2022-07-29T12:10:42.972Z,32.00
2022-07-29T12:13:11.299Z,32.60
2022-07-29T12:15:46.814Z,32.80
2022-07-29T12:18:20.107Z,32.70
2022-07-29T12:20:58.976Z,32.30
2022-07-29T12:23:34.929Z,31.70
2022-07-29T12:26:07.595Z,31.30
2022-07-29T12:28:40.597Z,30.80
2022-07-29T12:31:15.077Z,30.50
2022-07-29T12:34:02.621Z,30.40
2022-07-29T12:36:29.645Z,30.70
2022-07-29T12:38:56.619Z,31.10
2022-07-29T12:41:23.582Z,31.60
2022-07-29T12:43:57.324Z,31.80
2022-07-29T12:46:24.280Z,32.20
2022-07-29T12:48:57.523Z,32.60
2022-07-29T12:51:32.092Z,33.00
2022-07-29T12:54:08.080Z,33.30
2022-07-29T12:56:44.003Z,33.70
2022-07-29T12:59:17.886Z,34.00
2022-07-29T13:01:48.028Z,34.50
2022-07-29T13:04:31.541Z,34.70
2022-07-29T13:07:02.414Z,34.80
2022-07-29T13:09:42.964Z,34.90
2022-07-29T13:12:14.309Z,35.40
2022-07-29T13:14:46.418Z,35.80
2022-07-29T13:17:24.213Z,36.40
2022-07-29T13:20:06.280Z,36.90
2022-07-29T13:22:36.980Z,37.00
2022-07-29T13:25:04.172Z,36.70
2022-07-29T13:27:37.301Z,36.90
2022-07-29T13:30:09.544Z,37.10
2022-07-29T13:32:37.506Z,37.10
2022-07-29T13:35:08.755Z,37.00
2022-07-29T13:37:39.457Z,37.20
2022-07-29T13:40:08.751Z,37.50
2022-07-29T13:42:35.834Z,37.50
2022-07-29T13:45:03.921Z,37.30
2022-07-29T13:47:32.817Z,37.00
2022-07-29T13:50:05.163Z,36.60
2022-07-29T13:52:33.416Z,36.10
2022-07-29T13:55:00.519Z,35.90
2022-07-29T13:57:28.823Z,36.00
2022-07-29T13:59:56.145Z,36.20
2022-07-29T14:02:25.775Z,36.60
2022-07-29T14:04:55.057Z,36.90
2022-07-29T14:07:23.265Z,36.90
2022-07-29T14:09:50.146Z,36.90
2022-07-29T14:12:17.018Z,36.80
2022-07-29T14:14:44.582Z,36.60
2022-07-29T14:17:14.301Z,36.20
2022-07-29T14:19:41.229Z,35.70
2022-07-29T14:22:09.528Z,35.20
2022-07-29T14:24:38.233Z,34.70
2022-07-29T14:27:08.422Z,34.30
2022-07-29T14:29:38.278Z,33.90
2022-07-29T14:32:11.191Z,33.80
2022-07-29T14:34:39.057Z,34.00
2022-07-29T14:37:07.043Z,34.40
2022-07-29T14:39:40.744Z,35.00
2022-07-29T14:42:12.351Z,35.60
2022-07-29T14:44:40.746Z,36.10
2022-07-29T14:47:08.659Z,36.40
2022-07-29T14:49:36.279Z,36.10
2022-07-29T14:52:03.446Z,35.80
2022-07-29T14:54:30.445Z,35.30
2022-07-29T14:56:58.921Z,34.90
2022-07-29T14:59:26.651Z,34.80
2022-07-29T15:01:53.606Z,34.80
2022-07-29T15:04:20.597Z,34.90
2022-07-29T15:06:47.570Z,34.90
2022-07-29T15:09:14.588Z,34.80
2022-07-29T15:11:41.502Z,34.80
2022-07-29T15:14:08.521Z,34.70
2022-07-29T15:16:39.385Z,34.70
2022-07-29T15:19:10.984Z,34.90
2022-07-29T15:21:41.336Z,34.70
2022-07-29T15:24:15.530Z,34.40
2022-07-29T15:26:43.474Z,33.90
2022-07-29T15:29:10.614Z,33.20
2022-07-29T15:31:37.541Z,32.50
2022-07-29T15:34:06.291Z,32.10
2022-07-29T15:39:21.311Z,31.50
2022-07-29T15:41:48.182Z,31.40
2022-07-29T15:44:15.054Z,31.20
2022-07-29T15:47:01.254Z,31.00
2022-07-29T15:49:47.666Z,30.80
2022-07-29T15:52:18.355Z,30.50
2022-07-29T15:54:46.242Z,30.20
2022-07-29T15:57:13.662Z,30.00
2022-07-29T15:59:40.544Z,29.90
2022-07-29T16:02:07.624Z,29.80
2022-07-29T16:04:34.558Z,29.70
2022-07-29T16:07:01.901Z,29.50
2022-07-29T16:09:29.050Z,29.30
2022-07-29T16:11:56.719Z,29.10
2022-07-29T16:14:24.027Z,28.90
2022-07-29T16:16:55.699Z,28.60
2022-07-29T16:19:23.010Z,28.40
2022-07-29T16:21:49.884Z,28.20
2022-07-29T16:24:16.812Z,27.90
2022-07-29T16:26:43.802Z,27.70
2022-07-29T16:29:10.697Z,27.60
2022-07-29T16:31:37.633Z,27.50
2022-07-29T16:34:04.561Z,27.40
2022-07-29T16:36:32.372Z,27.30
2022-07-29T16:38:59.798Z,27.10
2022-07-29T16:41:27.191Z,27.00
2022-07-29T16:43:55.356Z,26.90
2022-07-29T16:46:22.368Z,26.70
2022-07-29T16:48:51.381Z,26.60
2022-07-29T16:51:18.402Z,26.60
2022-07-29T16:53:45.701Z,26.60
2022-07-29T16:56:16.581Z,26.60
2022-07-29T16:58:44.125Z,26.60
2022-07-29T17:01:11.859Z,26.60
2022-07-29T17:04:00.370Z,26.80
2022-07-29T17:06:29.629Z,26.80
2022-07-29T17:08:57.140Z,26.80
2022-07-29T17:11:53.424Z,26.80
2022-07-29T17:14:11.263Z,26.80
2022-07-29T17:16:38.288Z,26.70
2022-07-29T17:19:05.337Z,26.60
2022-07-29T17:21:32.263Z,26.40
2022-07-29T17:23:59.775Z,26.40
2022-07-29T17:26:28.094Z,26.30
2022-07-29T17:28:55.691Z,26.20
2022-07-29T17:31:23.561Z,26.10
2022-07-29T17:33:50.560Z,26.00
2022-07-29T17:36:23.849Z,25.90
2022-07-29T17:38:56.133Z,25.80
2022-07-29T17:41:23.693Z,25.70
2022-07-29T17:43:51.536Z,25.60
2022-07-29T17:46:19.927Z,25.60
2022-07-29T17:48:47.185Z,25.50
2022-07-29T17:51:14.443Z,25.40
2022-07-29T17:53:41.578Z,25.30
2022-07-29T17:56:08.567Z,25.20
2022-07-29T17:58:35.544Z,25.10
2022-07-29T18:01:02.482Z,25.00
2022-07-29T18:03:29.685Z,25.00
2022-07-29T18:05:56.651Z,24.90
2022-07-29T18:08:24.087Z,24.80
2022-07-29T18:10:51.534Z,24.60
2022-07-29T18:13:18.454Z,24.50
2022-07-29T18:15:46.349Z,24.40
2022-07-29T18:18:14.656Z,24.30
2022-07-29T18:20:42.964Z,24.10
2022-07-29T18:23:10.467Z,24.00
2022-07-29T18:25:37.946Z,23.80
2022-07-29T18:28:06.083Z,23.80
2022-07-29T18:30:42.176Z,23.60
2022-07-29T18:33:21.733Z,23.60
2022-07-29T18:35:51.205Z,23.40
2022-07-29T18:38:19.075Z,23.30
2022-07-29T18:40:46.354Z,23.20
2022-07-29T18:43:13.758Z,23.10
2022-07-29T18:45:42.497Z,23.00
2022-07-29T18:48:12.761Z,22.90
2022-07-29T18:50:40.975Z,22.80
2022-07-29T18:53:08.305Z,22.80
2022-07-29T18:55:35.247Z,22.80
2022-07-29T18:58:02.214Z,22.60
2022-07-29T19:00:30.610Z,22.60
2022-07-29T19:02:57.622Z,22.50
2022-07-29T19:05:24.731Z,22.40
2022-07-29T19:07:51.673Z,22.40
2022-07-29T19:10:18.702Z,22.30
2022-07-29T19:12:45.673Z,22.30
2022-07-29T19:15:12.638Z,22.20
2022-07-29T19:17:47.176Z,22.20
2022-07-29T19:20:14.527Z,22.20
2022-07-29T19:22:41.847Z,22.10
2022-07-29T19:25:09.931Z,22.20
2022-07-29T19:27:36.885Z,22.10
2022-07-29T19:30:06.568Z,22.10
2022-07-29T19:32:33.520Z,22.10
2022-07-29T19:35:18.963Z,22.10
2022-07-29T19:37:46.083Z,22.00
2022-07-29T19:40:13.266Z,22.00
2022-07-29T19:42:40.227Z,22.00
2022-07-29T19:45:07.576Z,22.00
2022-07-29T19:47:34.881Z,21.90
2022-07-29T19:50:02.139Z,21.90
2022-07-29T19:52:29.398Z,21.90
2022-07-29T19:54:57.296Z,21.90
2022-07-29T19:57:24.300Z,21.80
2022-07-29T19:59:51.401Z,21.80
2022-07-29T20:02:19.560Z,21.80
2022-07-29T20:04:46.552Z,21.80
2022-07-29T20:07:13.792Z,21.70
2022-07-29T20:09:41.988Z,21.80
2022-07-29T20:12:10.141Z,21.70
2022-07-29T20:14:37.990Z,21.70
2022-07-29T20:17:05.471Z,21.70
2022-07-29T20:19:33.289Z,21.70
2022-07-29T20:22:00.539Z,21.70
2022-07-29T20:24:27.471Z,21.70
2022-07-29T20:26:54.653Z,21.60
2022-07-29T20:29:23.692Z,21.60
2022-07-29T20:31:52.250Z,21.60
2022-07-29T20:34:25.198Z,21.60
2022-07-29T20:36:52.244Z,21.60
2022-07-29T20:39:21.159Z,21.60
2022-07-29T20:41:48.685Z,21.60
2022-07-29T20:44:18.839Z,21.60
2022-07-29T20:46:46.311Z,21.50
2022-07-29T20:49:13.277Z,21.50
2022-07-29T20:51:43.313Z,21.50
2022-07-29T20:54:11.800Z,21.50
2022-07-29T20:56:39.735Z,21.50
2022-07-29T20:59:07.155Z,21.50
2022-07-29T21:01:35.974Z,21.50
2022-07-29T21:04:03.478Z,21.50
2022-07-29T21:06:30.897Z,21.40
2022-07-29T21:08:59.722Z,21.40
2022-07-29T21:11:43.873Z,21.40
2022-07-29T21:14:23.239Z,21.40
2022-07-29T21:16:50.696Z,21.40
2022-07-29T21:19:17.736Z,21.40
2022-07-29T21:21:44.942Z,21.40
2022-07-29T21:24:12.386Z,21.30
2022-07-29T21:26:39.579Z,21.30
2022-07-29T21:29:06.705Z,21.30
2022-07-29T21:31:33.838Z,21.20
2022-07-29T21:34:00.973Z,21.30
2022-07-29T21:36:47.641Z,21.20
2022-07-29T21:39:15.237Z,21.20
2022-07-29T21:41:42.374Z,21.20
2022-07-29T21:44:09.529Z,21.10
2022-07-29T21:46:36.806Z,21.10
2022-07-29T21:49:04.140Z,21.10
2022-07-29T21:51:31.302Z,21.10
2022-07-29T21:53:58.457Z,21.10
2022-07-29T21:56:27.843Z,21.00
2022-07-29T21:58:55.106Z,21.10
2022-07-29T22:01:22.419Z,21.00
2022-07-29T22:03:49.491Z,21.00
2022-07-29T22:06:17.841Z,21.00
2022-07-29T22:08:45.820Z,21.00
2022-07-29T22:11:13.392Z,20.90
2022-07-29T22:13:40.615Z,20.90
2022-07-29T22:16:09.569Z,20.90
2022-07-29T22:18:36.709Z,20.90
2022-07-29T22:21:04.014Z,20.90
2022-07-29T22:23:31.894Z,20.80
2022-07-29T22:25:59.119Z,20.80
2022-07-29T22:28:26.210Z,20.80
2022-07-29T22:30:53.333Z,20.80
2022-07-29T22:33:20.436Z,20.80
2022-07-29T22:35:49.274Z,20.80
2022-07-29T22:38:17.775Z,20.80
2022-07-29T22:40:45.008Z,20.70
2022-07-29T22:43:12.475Z,20.70
2022-07-29T22:45:39.654Z,20.70
2022-07-29T22:48:06.810Z,20.70
2022-07-29T22:50:35.095Z,20.70
2022-07-29T22:53:02.314Z,20.60
2022-07-29T22:55:29.410Z,20.60
2022-07-29T22:57:56.542Z,20.60
2022-07-29T23:00:24.054Z,20.60
2022-07-29T23:02:51.149Z,20.60
2022-07-29T23:05:19.182Z,20.60
2022-07-29T23:07:46.315Z,20.60
2022-07-29T23:10:13.287Z,20.60
2022-07-29T23:12:40.350Z,20.60
2022-07-29T23:15:07.914Z,20.60
2022-07-29T23:17:36.468Z,20.50
2022-07-29T23:20:09.827Z,20.50
2022-07-29T23:22:37.050Z,20.50
2022-07-29T23:25:05.134Z,20.50
2022-07-29T23:27:32.325Z,20.50
2022-07-29T23:29:59.466Z,20.50
2022-07-29T23:32:26.612Z,20.50
2022-07-29T23:34:53.880Z,20.40
2022-07-29T23:37:20.921Z,20.40
2022-07-29T23:39:48.061Z,20.50
2022-07-29T23:42:15.191Z,20.40
2022-07-29T23:44:42.347Z,20.40
2022-07-29T23:47:09.510Z,20.40
2022-07-29T23:49:36.638Z,20.40
2022-07-29T23:52:03.923Z,20.40
2022-07-29T23:54:30.974Z,20.20
2022-07-29T23:56:58.433Z,20.20
2022-07-29T23:59:25.593Z,20.10
